sensor_id;sensor_type;location;lat;lon;timestamp;pressure;altitude;pressure_sealevel;temperature;humidity
72308;BME280;60257;42.638;23.376;2022-11-13T00:00:48;95965.38;;;8.83;76.18
72308;BME280;60257;42.638;23.376;2022-11-13T00:03:14;95966.59;;;8.77;76.24
72308;BME280;60257;42.638;23.376;2022-11-13T00:05:39;95971.25;;;8.76;76.66
72308;BME280;60257;42.638;23.376;2022-11-13T00:08:05;95971.06;;;8.86;76.60
72308;BME280;60257;42.638;23.376;2022-11-13T00:10:30;95966.81;;;8.80;76.33
72308;BME280;60257;42.638;23.376;2022-11-13T00:12:55;95967.63;;;8.81;76.90
72308;BME280;60257;42.638;23.376;2022-11-13T00:15:21;95951.81;;;8.78;76.58
72308;BME280;60257;42.638;23.376;2022-11-13T00:17:47;95956.47;;;8.77;76.72
72308;BME280;60257;42.638;23.376;2022-11-13T00:20:12;95960.25;;;8.81;76.49
72308;BME280;60257;42.638;23.376;2022-11-13T00:22:38;95950.41;;;8.80;76.55
72308;BME280;60257;42.638;23.376;2022-11-13T00:25:04;95955.75;;;8.85;76.45
72308;BME280;60257;42.638;23.376;2022-11-13T00:27:30;95946.75;;;8.85;76.23
72308;BME280;60257;42.638;23.376;2022-11-13T00:29:56;95949.28;;;8.81;76.47
72308;BME280;60257;42.638;23.376;2022-11-13T00:32:21;95949.47;;;8.85;76.34
72308;BME280;60257;42.638;23.376;2022-11-13T00:34:47;95950.59;;;8.84;76.47
72308;BME280;60257;42.638;23.376;2022-11-13T00:37:12;95956.28;;;8.87;76.50
72308;BME280;60257;42.638;23.376;2022-11-13T00:39:38;95948.06;;;8.87;76.48
72308;BME280;60257;42.638;23.376;2022-11-13T00:42:03;95949.97;;;9.01;76.17
72308;BME280;60257;42.638;23.376;2022-11-13T00:44:29;95931.63;;;9.01;75.79
72308;BME280;60257;42.638;23.376;2022-11-13T00:46:54;95936.13;;;8.97;75.89
72308;BME280;60257;42.638;23.376;2022-11-13T00:49:19;95945.72;;;8.95;75.98
72308;BME280;60257;42.638;23.376;2022-11-13T00:51:45;95941.78;;;9.01;75.64
72308;BME280;60257;42.638;23.376;2022-11-13T00:54:10;95929.31;;;8.95;75.65
72308;BME280;60257;42.638;23.376;2022-11-13T00:56:36;95939.34;;;8.99;75.57
72308;BME280;60257;42.638;23.376;2022-11-13T00:59:01;95947.25;;;9.01;75.29
72308;BME280;60257;42.638;23.376;2022-11-13T01:01:27;95935.47;;;9.00;75.53
72308;BME280;60257;42.638;23.376;2022-11-13T01:03:52;95933.16;;;8.94;75.67
72308;BME280;60257;42.638;23.376;2022-11-13T01:06:21;95941.59;;;8.97;75.63
72308;BME280;60257;42.638;23.376;2022-11-13T01:08:47;95942.28;;;9.03;75.36
72308;BME280;60257;42.638;23.376;2022-11-13T01:11:17;95934.19;;;8.98;75.59
72308;BME280;60257;42.638;23.376;2022-11-13T01:13:45;95930.72;;;8.92;75.71
72308;BME280;60257;42.638;23.376;2022-11-13T01:16:12;95937.00;;;8.93;75.76
72308;BME280;60257;42.638;23.376;2022-11-13T01:18:39;95933.47;;;8.92;76.15
72308;BME280;60257;42.638;23.376;2022-11-13T01:21:11;95941.78;;;8.87;76.15
72308;BME280;60257;42.638;23.376;2022-11-13T01:23:37;95905.44;;;8.73;75.89
72308;BME280;60257;42.638;23.376;2022-11-13T01:26:17;95929.72;;;8.88;75.69
72308;BME280;60257;42.638;23.376;2022-11-13T01:28:44;95934.69;;;8.86;75.78
72308;BME280;60257;42.638;23.376;2022-11-13T01:31:15;95929.81;;;8.83;75.98
72308;BME280;60257;42.638;23.376;2022-11-13T01:33:42;95933.38;;;8.83;75.91
72308;BME280;60257;42.638;23.376;2022-11-13T01:36:14;95934.00;;;8.80;75.95
72308;BME280;60257;42.638;23.376;2022-11-13T01:38:40;95933.78;;;8.77;75.65
72308;BME280;60257;42.638;23.376;2022-11-13T01:41:06;95937.84;;;8.79;75.95
72308;BME280;60257;42.638;23.376;2022-11-13T01:43:34;95923.75;;;8.72;76.24
72308;BME280;60257;42.638;23.376;2022-11-13T01:46:06;95927.50;;;8.76;75.78
72308;BME280;60257;42.638;23.376;2022-11-13T01:48:41;95925.50;;;8.82;75.55
72308;BME280;60257;42.638;23.376;2022-11-13T01:51:14;95923.56;;;8.82;75.39
72308;BME280;60257;42.638;23.376;2022-11-13T01:53:42;95916.47;;;8.81;75.56
72308;BME280;60257;42.638;23.376;2022-11-13T01:56:10;95925.28;;;8.78;75.63
72308;BME280;60257;42.638;23.376;2022-11-13T01:58:37;95905.44;;;8.73;75.58
72308;BME280;60257;42.638;23.376;2022-11-13T02:01:04;95922.66;;;8.73;75.80
72308;BME280;60257;42.638;23.376;2022-11-13T02:03:29;95910.28;;;8.76;75.69
72308;BME280;60257;42.638;23.376;2022-11-13T02:05:55;95915.66;;;8.81;75.69
72308;BME280;60257;42.638;23.376;2022-11-13T02:08:20;95921.44;;;8.79;75.77
72308;BME280;60257;42.638;23.376;2022-11-13T02:10:46;95928.09;;;8.87;75.84
72308;BME280;60257;42.638;23.376;2022-11-13T02:13:12;95920.03;;;8.82;76.05
72308;BME280;60257;42.638;23.376;2022-11-13T02:15:39;95913.41;;;8.83;75.72
72308;BME280;60257;42.638;23.376;2022-11-13T02:18:05;95913.63;;;8.86;75.60
72308;BME280;60257;42.638;23.376;2022-11-13T02:23:19;95927.31;;;8.86;75.90
72308;BME280;60257;42.638;23.376;2022-11-13T02:25:49;95912.94;;;8.81;75.86
72308;BME280;60257;42.638;23.376;2022-11-13T02:28:16;95910.78;;;8.78;75.95
72308;BME280;60257;42.638;23.376;2022-11-13T02:30:41;95910.66;;;8.83;75.86
72308;BME280;60257;42.638;23.376;2022-11-13T02:33:27;95919.59;;;8.88;75.84
72308;BME280;60257;42.638;23.376;2022-11-13T02:35:52;95913.09;;;8.84;76.09
72308;BME280;60257;42.638;23.376;2022-11-13T02:38:18;95909.78;;;8.87;76.06
72308;BME280;60257;42.638;23.376;2022-11-13T02:40:44;95912.38;;;8.93;75.69
72308;BME280;60257;42.638;23.376;2022-11-13T02:43:09;95906.22;;;8.87;75.88
72308;BME280;60257;42.638;23.376;2022-11-13T02:45:35;95902.47;;;8.83;75.84
72308;BME280;60257;42.638;23.376;2022-11-13T02:48:03;95916.56;;;8.76;76.48
72308;BME280;60257;42.638;23.376;2022-11-13T02:50:29;95906.66;;;8.80;76.15
72308;BME280;60257;42.638;23.376;2022-11-13T02:52:55;95910.78;;;8.92;76.00
72308;BME280;60257;42.638;23.376;2022-11-13T02:55:21;95910.28;;;8.90;75.74
72308;BME280;60257;42.638;23.376;2022-11-13T02:57:46;95905.41;;;8.86;75.86
72308;BME280;60257;42.638;23.376;2022-11-13T03:00:12;95922.13;;;8.85;76.19
72308;BME280;60257;42.638;23.376;2022-11-13T03:02:38;95922.22;;;8.94;75.86
72308;BME280;60257;42.638;23.376;2022-11-13T03:05:03;95920.31;;;8.94;75.95
72308;BME280;60257;42.638;23.376;2022-11-13T03:07:29;95909.47;;;8.89;76.00
72308;BME280;60257;42.638;23.376;2022-11-13T03:09:55;95923.34;;;8.93;76.13
72308;BME280;60257;42.638;23.376;2022-11-13T03:12:22;95919.19;;;8.95;75.87
72308;BME280;60257;42.638;23.376;2022-11-13T03:14:47;95913.41;;;8.97;75.95
72308;BME280;60257;42.638;23.376;2022-11-13T03:17:12;95925.56;;;9.04;75.87
72308;BME280;60257;42.638;23.376;2022-11-13T03:19:38;95926.69;;;9.03;75.75
72308;BME280;60257;42.638;23.376;2022-11-13T03:22:03;95922.00;;;9.04;75.63
72308;BME280;60257;42.638;23.376;2022-11-13T03:24:29;95920.47;;;9.11;75.56
72308;BME280;60257;42.638;23.376;2022-11-13T03:26:54;95915.81;;;9.12;75.28
72308;BME280;60257;42.638;23.376;2022-11-13T03:29:20;95922.28;;;9.16;75.13
72308;BME280;60257;42.638;23.376;2022-11-13T03:31:45;95914.88;;;9.16;75.16
72308;BME280;60257;42.638;23.376;2022-11-13T03:34:11;95918.66;;;9.20;75.11
72308;BME280;60257;42.638;23.376;2022-11-13T03:36:36;95921.97;;;9.17;75.27
72308;BME280;60257;42.638;23.376;2022-11-13T03:39:02;95925.22;;;9.19;75.08
72308;BME280;60257;42.638;23.376;2022-11-13T03:41:28;95926.72;;;9.25;74.94
72308;BME280;60257;42.638;23.376;2022-11-13T03:43:53;95926.84;;;9.20;74.99
72308;BME280;60257;42.638;23.376;2022-11-13T03:46:19;95932.00;;;9.22;75.24
72308;BME280;60257;42.638;23.376;2022-11-13T03:48:44;95917.50;;;9.21;74.98
72308;BME280;60257;42.638;23.376;2022-11-13T03:51:10;95927.94;;;9.33;74.77
72308;BME280;60257;42.638;23.376;2022-11-13T03:53:35;95933.09;;;9.35;75.00
72308;BME280;60257;42.638;23.376;2022-11-13T03:56:01;95931.19;;;9.35;74.77
72308;BME280;60257;42.638;23.376;2022-11-13T03:58:26;95926.50;;;9.36;74.78
72308;BME280;60257;42.638;23.376;2022-11-13T04:00:54;95929.63;;;9.43;74.54
72308;BME280;60257;42.638;23.376;2022-11-13T04:03:19;95926.91;;;9.43;74.52
72308;BME280;60257;42.638;23.376;2022-11-13T04:05:47;95926.97;;;9.51;74.36
72308;BME280;60257;42.638;23.376;2022-11-13T04:08:13;95920.09;;;9.40;74.73
72308;BME280;60257;42.638;23.376;2022-11-13T04:10:38;95926.38;;;9.41;74.80
72308;BME280;60257;42.638;23.376;2022-11-13T04:13:04;95920.22;;;9.35;74.74
72308;BME280;60257;42.638;23.376;2022-11-13T04:15:29;95926.19;;;9.37;74.83
72308;BME280;60257;42.638;23.376;2022-11-13T04:17:55;95920.84;;;9.32;74.85
72308;BME280;60257;42.638;23.376;2022-11-13T04:20:20;95912.81;;;9.36;74.79
72308;BME280;60257;42.638;23.376;2022-11-13T04:22:46;95841.09;;;8.89;75.03
72308;BME280;60257;42.638;23.376;2022-11-13T04:25:11;95920.41;;;9.39;74.87
72308;BME280;60257;42.638;23.376;2022-11-13T04:27:37;95919.28;;;9.40;74.73
72308;BME280;60257;42.638;23.376;2022-11-13T04:30:03;95913.44;;;9.33;75.04
72308;BME280;60257;42.638;23.376;2022-11-13T04:32:30;95913.34;;;9.24;75.15
72308;BME280;60257;42.638;23.376;2022-11-13T04:34:56;95916.00;;;9.29;75.43
72308;BME280;60257;42.638;23.376;2022-11-13T04:37:21;95925.09;;;9.24;75.53
72308;BME280;60257;42.638;23.376;2022-11-13T04:39:47;95910.22;;;9.17;75.85
72308;BME280;60257;42.638;23.376;2022-11-13T04:42:12;95924.63;;;9.09;76.13
72308;BME280;60257;42.638;23.376;2022-11-13T04:44:56;95917.22;;;9.09;75.88
72308;BME280;60257;42.638;23.376;2022-11-13T04:47:22;95911.25;;;9.07;76.08
72308;BME280;60257;42.638;23.376;2022-11-13T04:49:47;95920.69;;;9.01;76.07
72308;BME280;60257;42.638;23.376;2022-11-13T04:52:13;95903.03;;;9.07;76.16
72308;BME280;60257;42.638;23.376;2022-11-13T04:54:39;95899.00;;;9.05;76.17
72308;BME280;60257;42.638;23.376;2022-11-13T04:57:04;95909.63;;;9.06;76.16
72308;BME280;60257;42.638;23.376;2022-11-13T04:59:30;95920.78;;;9.10;76.05
72308;BME280;60257;42.638;23.376;2022-11-13T05:01:56;95911.66;;;9.01;76.32
72308;BME280;60257;42.638;23.376;2022-11-13T05:04:22;95912.28;;;9.11;75.80
72308;BME280;60257;42.638;23.376;2022-11-13T05:06:47;95915.22;;;9.01;76.29
72308;BME280;60257;42.638;23.376;2022-11-13T05:09:13;95920.69;;;9.01;76.40
72308;BME280;60257;42.638;23.376;2022-11-13T05:11:38;95929.72;;;9.02;76.37
72308;BME280;60257;42.638;23.376;2022-11-13T05:14:04;95923.44;;;9.01;76.36
72308;BME280;60257;42.638;23.376;2022-11-13T05:16:30;95921.81;;;9.00;76.35
72308;BME280;60257;42.638;23.376;2022-11-13T05:18:59;95893.97;;;8.84;76.44
72308;BME280;60257;42.638;23.376;2022-11-13T05:21:24;95933.56;;;9.01;76.42
72308;BME280;60257;42.638;23.376;2022-11-13T05:23:50;95919.56;;;9.02;76.37
72308;BME280;60257;42.638;23.376;2022-11-13T05:26:15;95923.00;;;9.08;76.50
72308;BME280;60257;42.638;23.376;2022-11-13T05:28:41;95919.38;;;8.99;76.49
72308;BME280;60257;42.638;23.376;2022-11-13T05:31:12;95926.97;;;9.02;76.32
72308;BME280;60257;42.638;23.376;2022-11-13T05:33:39;95922.63;;;9.01;76.39
72308;BME280;60257;42.638;23.376;2022-11-13T05:36:10;95925.06;;;9.02;76.22
72308;BME280;60257;42.638;23.376;2022-11-13T05:38:37;95934.19;;;8.98;76.39
72308;BME280;60257;42.638;23.376;2022-11-13T05:41:04;95937.09;;;9.01;76.04
72308;BME280;60257;42.638;23.376;2022-11-13T05:43:31;95932.25;;;8.98;75.61
72308;BME280;60257;42.638;23.376;2022-11-13T05:46:05;95938.81;;;9.11;75.04
72308;BME280;60257;42.638;23.376;2022-11-13T05:48:31;95943.38;;;9.15;74.54
72308;BME280;60257;42.638;23.376;2022-11-13T05:51:02;95924.50;;;9.14;74.26
72308;BME280;60257;42.638;23.376;2022-11-13T05:53:28;95934.56;;;9.18;74.50
72308;BME280;60257;42.638;23.376;2022-11-13T05:55:53;95930.31;;;9.12;73.94
72308;BME280;60257;42.638;23.376;2022-11-13T05:58:19;95938.22;;;9.00;74.64
72308;BME280;60257;42.638;23.376;2022-11-13T06:00:45;95938.31;;;9.09;74.23
72308;BME280;60257;42.638;23.376;2022-11-13T06:03:10;95940.94;;;9.14;73.78
72308;BME280;60257;42.638;23.376;2022-11-13T06:05:36;95947.84;;;9.11;73.77
72308;BME280;60257;42.638;23.376;2022-11-13T06:08:01;95959.09;;;9.10;74.13
72308;BME280;60257;42.638;23.376;2022-11-13T06:10:27;95955.13;;;9.16;73.87
72308;BME280;60257;42.638;23.376;2022-11-13T06:12:53;95956.63;;;9.22;73.67
72308;BME280;60257;42.638;23.376;2022-11-13T06:15:19;95964.25;;;9.25;73.60
72308;BME280;60257;42.638;23.376;2022-11-13T06:17:45;95960.56;;;9.30;73.44
72308;BME280;60257;42.638;23.376;2022-11-13T06:20:14;95951.97;;;9.22;73.72
72308;BME280;60257;42.638;23.376;2022-11-13T06:22:39;95947.53;;;9.13;73.60
72308;BME280;60257;42.638;23.376;2022-11-13T06:25:05;95954.09;;;9.25;73.52
72308;BME280;60257;42.638;23.376;2022-11-13T06:27:31;95955.59;;;9.32;73.53
72308;BME280;60257;42.638;23.376;2022-11-13T06:29:56;95957.75;;;9.35;73.44
72308;BME280;60257;42.638;23.376;2022-11-13T06:32:22;95959.03;;;9.37;73.06
72308;BME280;60257;42.638;23.376;2022-11-13T06:34:47;95953.25;;;9.39;72.46
72308;BME280;60257;42.638;23.376;2022-11-13T06:37:14;95958.44;;;9.40;72.91
72308;BME280;60257;42.638;23.376;2022-11-13T06:39:39;95952.13;;;9.40;72.67
72308;BME280;60257;42.638;23.376;2022-11-13T06:42:05;95943.75;;;9.36;72.71
72308;BME280;60257;42.638;23.376;2022-11-13T06:44:30;95941.00;;;9.36;72.66
72308;BME280;60257;42.638;23.376;2022-11-13T06:46:55;95948.97;;;9.46;72.27
72308;BME280;60257;42.638;23.376;2022-11-13T06:49:21;95951.41;;;9.48;72.19
72308;BME280;60257;42.638;23.376;2022-11-13T06:51:46;95947.13;;;9.55;71.96
72308;BME280;60257;42.638;23.376;2022-11-13T06:54:12;95938.09;;;9.55;72.00
72308;BME280;60257;42.638;23.376;2022-11-13T06:56:37;95945.78;;;9.67;71.58
72308;BME280;60257;42.638;23.376;2022-11-13T06:59:08;95952.75;;;9.73;71.62
72308;BME280;60257;42.638;23.376;2022-11-13T07:01:33;95942.63;;;9.73;71.35
72308;BME280;60257;42.638;23.376;2022-11-13T07:03:59;95945.03;;;9.75;70.79
72308;BME280;60257;42.638;23.376;2022-11-13T07:06:24;95944.72;;;9.76;70.67
72308;BME280;60257;42.638;23.376;2022-11-13T07:08:50;95946.22;;;9.82;70.97
72308;BME280;60257;42.638;23.376;2022-11-13T07:11:18;95947.44;;;9.76;70.79
72308;BME280;60257;42.638;23.376;2022-11-13T07:13:45;95937.13;;;9.73;70.87
72308;BME280;60257;42.638;23.376;2022-11-13T07:16:11;95955.94;;;9.88;70.25
72308;BME280;60257;42.638;23.376;2022-11-13T07:18:37;95958.63;;;9.80;70.46
72308;BME280;60257;42.638;23.376;2022-11-13T07:21:05;95946.34;;;9.77;70.60
72308;BME280;60257;42.638;23.376;2022-11-13T07:23:31;95947.72;;;9.88;70.10
72308;BME280;60257;42.638;23.376;2022-11-13T07:25:57;95952.91;;;9.90;70.26
72308;BME280;60257;42.638;23.376;2022-11-13T07:28:22;95952.38;;;9.88;70.35
72308;BME280;60257;42.638;23.376;2022-11-13T07:30:48;95957.72;;;9.93;70.37
72308;BME280;60257;42.638;23.376;2022-11-13T07:33:14;95945.66;;;9.94;70.23
72308;BME280;60257;42.638;23.376;2022-11-13T07:35:39;95950.63;;;9.92;70.04
72308;BME280;60257;42.638;23.376;2022-11-13T07:38:05;95960.00;;;9.91;70.11
72308;BME280;60257;42.638;23.376;2022-11-13T07:40:30;95958.53;;;9.93;70.08
72308;BME280;60257;42.638;23.376;2022-11-13T07:42:59;95961.94;;;9.90;70.10
72308;BME280;60257;42.638;23.376;2022-11-13T07:45:26;95959.94;;;9.82;70.24
72308;BME280;60257;42.638;23.376;2022-11-13T07:47:58;95958.69;;;9.88;70.40
72308;BME280;60257;42.638;23.376;2022-11-13T07:50:26;95965.47;;;9.91;70.27
72308;BME280;60257;42.638;23.376;2022-11-13T07:52:59;95957.13;;;9.96;69.95
72308;BME280;60257;42.638;23.376;2022-11-13T07:55:26;95953.72;;;9.90;69.93
72308;BME280;60257;42.638;23.376;2022-11-13T07:57:57;95964.41;;;10.00;70.00
72308;BME280;60257;42.638;23.376;2022-11-13T08:00:25;95955.72;;;10.07;69.84
72308;BME280;60257;42.638;23.376;2022-11-13T08:02:51;95959.28;;;10.08;69.86
72308;BME280;60257;42.638;23.376;2022-11-13T08:05:16;95953.59;;;10.18;69.37
72308;BME280;60257;42.638;23.376;2022-11-13T08:07:42;95954.50;;;10.13;68.95
72308;BME280;60257;42.638;23.376;2022-11-13T08:10:08;95957.34;;;10.22;68.56
72308;BME280;60257;42.638;23.376;2022-11-13T08:12:33;95956.53;;;10.21;68.46
72308;BME280;60257;42.638;23.376;2022-11-13T08:14:58;95962.03;;;10.30;68.14
72308;BME280;60257;42.638;23.376;2022-11-13T08:17:24;95955.44;;;10.31;68.07
72308;BME280;60257;42.638;23.376;2022-11-13T08:19:50;95952.69;;;10.31;67.88
72308;BME280;60257;42.638;23.376;2022-11-13T08:22:15;95958.13;;;10.22;68.24
72308;BME280;60257;42.638;23.376;2022-11-13T08:24:40;95954.00;;;10.11;68.27
72308;BME280;60257;42.638;23.376;2022-11-13T08:27:06;95961.81;;;10.18;68.41
72308;BME280;60257;42.638;23.376;2022-11-13T08:29:31;95951.66;;;10.18;68.23
72308;BME280;60257;42.638;23.376;2022-11-13T08:31:57;95955.94;;;10.11;68.55
72308;BME280;60257;42.638;23.376;2022-11-13T08:34:23;95950.72;;;10.23;68.19
72308;BME280;60257;42.638;23.376;2022-11-13T08:36:48;95954.63;;;10.30;69.14
72308;BME280;60257;42.638;23.376;2022-11-13T08:39:14;95961.06;;;10.26;68.37
72308;BME280;60257;42.638;23.376;2022-11-13T08:41:39;95965.28;;;10.32;67.90
72308;BME280;60257;42.638;23.376;2022-11-13T08:44:05;95956.59;;;10.16;68.28
72308;BME280;60257;42.638;23.376;2022-11-13T08:46:30;95962.03;;;10.30;68.28
72308;BME280;60257;42.638;23.376;2022-11-13T08:48:56;95959.69;;;10.37;68.10
72308;BME280;60257;42.638;23.376;2022-11-13T08:51:21;95966.53;;;10.26;67.87
72308;BME280;60257;42.638;23.376;2022-11-13T08:53:46;95967.34;;;10.26;67.88
72308;BME280;60257;42.638;23.376;2022-11-13T08:56:12;95972.34;;;10.24;67.91
72308;BME280;60257;42.638;23.376;2022-11-13T08:58:37;95970.72;;;10.23;68.13
72308;BME280;60257;42.638;23.376;2022-11-13T09:01:03;95962.19;;;10.25;68.18
72308;BME280;60257;42.638;23.376;2022-11-13T09:03:29;95972.47;;;10.19;68.41
72308;BME280;60257;42.638;23.376;2022-11-13T09:05:54;95963.47;;;10.05;68.75
72308;BME280;60257;42.638;23.376;2022-11-13T09:08:20;95972.78;;;10.18;68.69
72308;BME280;60257;42.638;23.376;2022-11-13T09:10:45;95968.66;;;10.29;68.03
72308;BME280;60257;42.638;23.376;2022-11-13T09:13:11;95972.22;;;10.29;68.48
72308;BME280;60257;42.638;23.376;2022-11-13T09:15:37;95971.72;;;10.27;68.19
72308;BME280;60257;42.638;23.376;2022-11-13T09:18:04;95966.91;;;10.33;68.12
72308;BME280;60257;42.638;23.376;2022-11-13T09:20:31;95972.31;;;10.47;67.86
72308;BME280;60257;42.638;23.376;2022-11-13T09:23:03;95978.38;;;10.35;67.97
72308;BME280;60257;42.638;23.376;2022-11-13T09:25:30;95955.00;;;10.37;67.84
72308;BME280;60257;42.638;23.376;2022-11-13T09:27:59;95963.41;;;10.41;67.45
72308;BME280;60257;42.638;23.376;2022-11-13T09:30:26;95955.22;;;10.50;67.43
72308;BME280;60257;42.638;23.376;2022-11-13T09:32:54;95969.31;;;10.57;66.98
72308;BME280;60257;42.638;23.376;2022-11-13T09:35:21;95956.19;;;10.54;67.23
72308;BME280;60257;42.638;23.376;2022-11-13T09:37:59;95958.69;;;10.64;67.02
72308;BME280;60257;42.638;23.376;2022-11-13T09:40:30;95954.28;;;10.54;67.12
72308;BME280;60257;42.638;23.376;2022-11-13T09:42:58;95954.47;;;10.58;67.01
72308;BME280;60257;42.638;23.376;2022-11-13T09:45:25;95942.22;;;10.64;66.84
72308;BME280;60257;42.638;23.376;2022-11-13T09:47:53;95950.69;;;10.76;66.11
72308;BME280;60257;42.638;23.376;2022-11-13T09:50:26;95947.94;;;10.85;65.97
72308;BME280;60257;42.638;23.376;2022-11-13T09:52:53;95944.00;;;10.99;65.33
72308;BME280;60257;42.638;23.376;2022-11-13T09:55:27;95938.28;;;10.87;65.22
72308;BME280;60257;42.638;23.376;2022-11-13T10:01:09;95904.03;;;10.85;65.04
72308;BME280;60257;42.638;23.376;2022-11-13T10:03:50;95926.06;;;11.02;65.19
72308;BME280;60257;42.638;23.376;2022-11-13T10:06:36;95928.50;;;11.12;65.18
72308;BME280;60257;42.638;23.376;2022-11-13T10:12:09;95929.84;;;11.40;64.44
72308;BME280;60257;42.638;23.376;2022-11-13T10:14:42;95928.25;;;11.56;63.83
72308;BME280;60257;42.638;23.376;2022-11-13T10:20:21;95930.50;;;11.54;63.97
72308;BME280;60257;42.638;23.376;2022-11-13T10:22:54;95913.06;;;11.68;63.05
72308;BME280;60257;42.638;23.376;2022-11-13T10:25:27;95921.66;;;11.75;62.91
72308;BME280;60257;42.638;23.376;2022-11-13T10:27:57;95917.78;;;11.84;62.55
72308;BME280;60257;42.638;23.376;2022-11-13T10:30:24;95911.13;;;11.85;62.62
72308;BME280;60257;42.638;23.376;2022-11-13T10:32:50;95917.59;;;11.81;62.41
72308;BME280;60257;42.638;23.376;2022-11-13T10:38:03;95912.41;;;12.05;61.99
72308;BME280;60257;42.638;23.376;2022-11-13T10:40:31;95913.53;;;12.13;61.14
72308;BME280;60257;42.638;23.376;2022-11-13T10:43:21;95906.13;;;11.96;61.08
72308;BME280;60257;42.638;23.376;2022-11-13T10:46:00;95904.47;;;12.04;61.33
72308;BME280;60257;42.638;23.376;2022-11-13T10:48:32;95901.75;;;11.95;61.13
72308;BME280;60257;42.638;23.376;2022-11-13T10:51:01;95899.97;;;11.90;60.81
72308;BME280;60257;42.638;23.376;2022-11-13T10:53:37;95903.88;;;11.89;60.96
72308;BME280;60257;42.638;23.376;2022-11-13T10:56:34;95895.75;;;11.93;60.70
72308;BME280;60257;42.638;23.376;2022-11-13T10:59:17;95897.84;;;12.05;60.84
72308;BME280;60257;42.638;23.376;2022-11-13T11:01:44;95885.22;;;12.12;60.18
72308;BME280;60257;42.638;23.376;2022-11-13T11:04:20;95893.13;;;12.22;59.57
72308;BME280;60257;42.638;23.376;2022-11-13T11:06:49;95889.22;;;12.23;59.61
72308;BME280;60257;42.638;23.376;2022-11-13T11:11:56;95889.09;;;12.11;59.74
72308;BME280;60257;42.638;23.376;2022-11-13T11:17:24;95888.78;;;11.70;60.52
72308;BME280;60257;42.638;23.376;2022-11-13T11:19:59;95885.09;;;11.57;61.23
72308;BME280;60257;42.638;23.376;2022-11-13T11:22:30;95876.69;;;11.62;60.79
72308;BME280;60257;42.638;23.376;2022-11-13T11:25:49;95878.47;;;11.67;60.90
72308;BME280;60257;42.638;23.376;2022-11-13T11:27:51;95880.44;;;11.83;60.78
72308;BME280;60257;42.638;23.376;2022-11-13T11:30:22;95879.09;;;11.72;61.21
72308;BME280;60257;42.638;23.376;2022-11-13T11:35:26;95871.53;;;11.78;60.49
72308;BME280;60257;42.638;23.376;2022-11-13T11:41:01;95870.88;;;11.64;61.11
72308;BME280;60257;42.638;23.376;2022-11-13T11:43:43;95872.16;;;11.57;61.17
72308;BME280;60257;42.638;23.376;2022-11-13T11:46:14;95865.06;;;11.65;61.01
72308;BME280;60257;42.638;23.376;2022-11-13T11:48:42;95860.06;;;11.58;60.78
72308;BME280;60257;42.638;23.376;2022-11-13T11:51:30;95855.69;;;11.66;60.70
72308;BME280;60257;42.638;23.376;2022-11-13T11:56:56;95852.94;;;11.66;60.72
72308;BME280;60257;42.638;23.376;2022-11-13T12:10:36;95851.13;;;11.70;60.62
72308;BME280;60257;42.638;23.376;2022-11-13T12:13:24;95857.94;;;11.73;60.55
72308;BME280;60257;42.638;23.376;2022-11-13T12:15:59;95846.13;;;11.72;60.15
72308;BME280;60257;42.638;23.376;2022-11-13T12:21:23;95851.00;;;11.67;60.26
72308;BME280;60257;42.638;23.376;2022-11-13T12:31:43;95847.91;;;11.85;59.68
72308;BME280;60257;42.638;23.376;2022-11-13T12:36:38;95839.69;;;11.68;59.59
72308;BME280;60257;42.638;23.376;2022-11-13T12:41:55;95841.28;;;11.78;59.19
72308;BME280;60257;42.638;23.376;2022-11-13T12:44:26;95840.50;;;11.60;59.89
72308;BME280;60257;42.638;23.376;2022-11-13T12:46:53;95834.22;;;11.77;59.17
72308;BME280;60257;42.638;23.376;2022-11-13T12:52:23;95838.50;;;11.95;58.03
72308;BME280;60257;42.638;23.376;2022-11-13T12:54:49;95846.63;;;11.91;57.84
72308;BME280;60257;42.638;23.376;2022-11-13T12:57:18;95836.28;;;11.88;57.99
72308;BME280;60257;42.638;23.376;2022-11-13T12:59:54;95837.09;;;11.89;57.72
72308;BME280;60257;42.638;23.376;2022-11-13T13:10:32;95824.97;;;11.64;58.56
72308;BME280;60257;42.638;23.376;2022-11-13T13:13:22;95826.09;;;11.63;58.67
72308;BME280;60257;42.638;23.376;2022-11-13T13:15:56;95824.34;;;11.58;58.67
72308;BME280;60257;42.638;23.376;2022-11-13T13:18:26;95829.16;;;11.70;58.74
72308;BME280;60257;42.638;23.376;2022-11-13T13:23:29;95838.88;;;11.59;58.53
72308;BME280;60257;42.638;23.376;2022-11-13T13:26:13;95833.53;;;11.71;58.28
72308;BME280;60257;42.638;23.376;2022-11-13T13:28:42;95825.47;;;11.75;58.56
72308;BME280;60257;42.638;23.376;2022-11-13T13:45:01;95814.63;;;11.78;58.27
72308;BME280;60257;42.638;23.376;2022-11-13T13:47:43;95816.09;;;11.67;58.43
72308;BME280;60257;42.638;23.376;2022-11-13T13:50:25;95818.66;;;11.64;58.73
72308;BME280;60257;42.638;23.376;2022-11-13T13:52:53;95811.09;;;11.43;59.12
72308;BME280;60257;42.638;23.376;2022-11-13T13:55:31;95813.69;;;11.40;59.07
72308;BME280;60257;42.638;23.376;2022-11-13T13:57:59;95811.09;;;11.26;59.65
72308;BME280;60257;42.638;23.376;2022-11-13T14:00:26;95811.59;;;11.19;60.06
72308;BME280;60257;42.638;23.376;2022-11-13T14:02:53;95812.72;;;11.10;60.13
72308;BME280;60257;42.638;23.376;2022-11-13T14:05:28;95820.63;;;11.11;60.22
72308;BME280;60257;42.638;23.376;2022-11-13T14:07:54;95810.75;;;11.02;60.72
72308;BME280;60257;42.638;23.376;2022-11-13T14:10:22;95812.38;;;10.94;61.03
72308;BME280;60257;42.638;23.376;2022-11-13T14:12:48;95804.00;;;10.91;61.03
72308;BME280;60257;42.638;23.376;2022-11-13T14:15:34;95804.63;;;10.88;62.85
72308;BME280;60257;42.638;23.376;2022-11-13T14:18:10;95803.66;;;10.75;62.00
72308;BME280;60257;42.638;23.376;2022-11-13T14:23:14;95807.28;;;10.53;62.47
72308;BME280;60257;42.638;23.376;2022-11-13T14:25:42;95810.78;;;10.28;63.46